sensor_id;sensor_type;location;lat;lon;timestamp;temperature;humidity
24326;DHT22;12448;45.532;5.290;2023-01-19T00:00:00;1.10;90.20
24326;DHT22;12448;45.532;5.290;2023-01-19T00:02:25;1.10;90.20
24326;DHT22;12448;45.532;5.290;2023-01-19T00:04:51;1.10;90.20
24326;DHT22;12448;45.532;5.290;2023-01-19T00:07:17;1.20;90.30
24326;DHT22;12448;45.532;5.290;2023-01-19T00:09:42;1.20;90.30
24326;DHT22;12448;45.532;5.290;2023-01-19T00:12:08;1.20;90.10
24326;DHT22;12448;45.532;5.290;2023-01-19T00:14:34;1.20;90.00
24326;DHT22;12448;45.532;5.290;2023-01-19T00:16:59;1.20;89.90
24326;DHT22;12448;45.532;5.290;2023-01-19T00:19:26;1.10;89.80
24326;DHT22;12448;45.532;5.290;2023-01-19T00:21:53;1.10;90.00
24326;DHT22;12448;45.532;5.290;2023-01-19T00:24:18;1.10;90.10
24326;DHT22;12448;45.532;5.290;2023-01-19T00:26:44;1.20;90.10
24326;DHT22;12448;45.532;5.290;2023-01-19T00:29:11;1.10;90.10
24326;DHT22;12448;45.532;5.290;2023-01-19T00:31:37;1.10;90.10
24326;DHT22;12448;45.532;5.290;2023-01-19T00:34:04;1.10;90.20
24326;DHT22;12448;45.532;5.290;2023-01-19T00:36:30;1.00;90.10
24326;DHT22;12448;45.532;5.290;2023-01-19T00:38:55;1.00;90.10
24326;DHT22;12448;45.532;5.290;2023-01-19T00:41:21;1.20;90.20
24326;DHT22;12448;45.532;5.290;2023-01-19T00:44:05;1.00;90.00
24326;DHT22;12448;45.532;5.290;2023-01-19T00:46:31;1.00;90.00
24326;DHT22;12448;45.532;5.290;2023-01-19T00:48:57;1.00;90.20
24326;DHT22;12448;45.532;5.290;2023-01-19T00:51:23;1.20;90.40
24326;DHT22;12448;45.532;5.290;2023-01-19T00:53:49;1.30;90.40
24326;DHT22;12448;45.532;5.290;2023-01-19T00:56:15;1.00;90.30
24326;DHT22;12448;45.532;5.290;2023-01-19T00:58:41;1.00;90.30
24326;DHT22;12448;45.532;5.290;2023-01-19T01:01:07;1.00;90.30
24326;DHT22;12448;45.532;5.290;2023-01-19T01:03:33;1.00;90.20
24326;DHT22;12448;45.532;5.290;2023-01-19T01:05:59;0.90;90.20
24326;DHT22;12448;45.532;5.290;2023-01-19T01:08:24;0.90;90.20
24326;DHT22;12448;45.532;5.290;2023-01-19T01:10:50;0.90;90.10
24326;DHT22;12448;45.532;5.290;2023-01-19T01:13:16;0.90;90.10
24326;DHT22;12448;45.532;5.290;2023-01-19T01:15:42;0.90;90.10
24326;DHT22;12448;45.532;5.290;2023-01-19T01:18:08;1.00;90.20
24326;DHT22;12448;45.532;5.290;2023-01-19T01:20:34;0.90;90.10
24326;DHT22;12448;45.532;5.290;2023-01-19T01:23:02;0.90;90.00
24326;DHT22;12448;45.532;5.290;2023-01-19T01:25:28;0.90;90.10
24326;DHT22;12448;45.532;5.290;2023-01-19T01:27:55;0.90;90.10
24326;DHT22;12448;45.532;5.290;2023-01-19T01:30:21;0.90;90.20
24326;DHT22;12448;45.532;5.290;2023-01-19T01:32:47;1.00;90.30
24326;DHT22;12448;45.532;5.290;2023-01-19T01:35:13;0.90;90.10
24326;DHT22;12448;45.532;5.290;2023-01-19T01:37:39;0.90;89.90
24326;DHT22;12448;45.532;5.290;2023-01-19T01:40:06;1.00;89.70
24326;DHT22;12448;45.532;5.290;2023-01-19T01:42:33;0.90;89.60
24326;DHT22;12448;45.532;5.290;2023-01-19T01:45:02;0.90;89.90
24326;DHT22;12448;45.532;5.290;2023-01-19T01:50:14;0.80;90.00
24326;DHT22;12448;45.532;5.290;2023-01-19T01:53:03;0.80;90.10
24326;DHT22;12448;45.532;5.290;2023-01-19T01:55:36;0.70;90.10
24326;DHT22;12448;45.532;5.290;2023-01-19T01:58:04;0.70;90.40
24326;DHT22;12448;45.532;5.290;2023-01-19T02:00:31;0.70;90.50
24326;DHT22;12448;45.532;5.290;2023-01-19T02:03:17;1.00;90.60
24326;DHT22;12448;45.532;5.290;2023-01-19T02:05:43;0.80;90.70
24326;DHT22;12448;45.532;5.290;2023-01-19T02:08:19;0.80;90.60
24326;DHT22;12448;45.532;5.290;2023-01-19T02:11:06;0.80;90.50
24326;DHT22;12448;45.532;5.290;2023-01-19T02:13:51;0.70;90.10
24326;DHT22;12448;45.532;5.290;2023-01-19T02:16:17;0.60;89.60
24326;DHT22;12448;45.532;5.290;2023-01-19T02:18:43;0.60;89.40
24326;DHT22;12448;45.532;5.290;2023-01-19T02:21:40;0.50;89.70
24326;DHT22;12448;45.532;5.290;2023-01-19T02:24:08;0.60;89.70
24326;DHT22;12448;45.532;5.290;2023-01-19T02:26:42;0.50;89.40
24326;DHT22;12448;45.532;5.290;2023-01-19T02:29:11;0.60;89.80
24326;DHT22;12448;45.532;5.290;2023-01-19T02:31:38;1.00;89.40
24326;DHT22;12448;45.532;5.290;2023-01-19T02:34:07;0.30;89.00
24326;DHT22;12448;45.532;5.290;2023-01-19T02:39:09;0.40;90.10
24326;DHT22;12448;45.532;5.290;2023-01-19T02:41:40;0.40;90.40
24326;DHT22;12448;45.532;5.290;2023-01-19T02:44:07;0.60;90.50
24326;DHT22;12448;45.532;5.290;2023-01-19T02:46:34;0.80;90.60
24326;DHT22;12448;45.532;5.290;2023-01-19T02:48:59;0.50;90.50
24326;DHT22;12448;45.532;5.290;2023-01-19T02:51:26;0.60;90.50
24326;DHT22;12448;45.532;5.290;2023-01-19T03:10:15;0.70;90.60
24326;DHT22;12448;45.532;5.290;2023-01-19T03:12:47;0.70;90.50
24326;DHT22;12448;45.532;5.290;2023-01-19T03:15:25;0.80;90.60
24326;DHT22;12448;45.532;5.290;2023-01-19T03:17:53;0.80;90.40
24326;DHT22;12448;45.532;5.290;2023-01-19T03:20:22;0.70;90.40
24326;DHT22;12448;45.532;5.290;2023-01-19T03:22:59;0.70;90.20
24326;DHT22;12448;45.532;5.290;2023-01-19T03:25:25;0.70;90.20
24326;DHT22;12448;45.532;5.290;2023-01-19T03:27:53;0.70;90.30
24326;DHT22;12448;45.532;5.290;2023-01-19T03:30:27;0.70;90.50
24326;DHT22;12448;45.532;5.290;2023-01-19T03:33:01;0.70;90.40
24326;DHT22;12448;45.532;5.290;2023-01-19T03:35:31;0.70;90.40
24326;DHT22;12448;45.532;5.290;2023-01-19T03:37:59;0.70;90.50
24326;DHT22;12448;45.532;5.290;2023-01-19T03:40:30;0.60;90.30
24326;DHT22;12448;45.532;5.290;2023-01-19T03:42:58;0.70;90.40
24326;DHT22;12448;45.532;5.290;2023-01-19T03:45:24;0.70;90.40
24326;DHT22;12448;45.532;5.290;2023-01-19T03:47:51;0.70;90.40
24326;DHT22;12448;45.532;5.290;2023-01-19T03:50:26;0.70;90.40
24326;DHT22;12448;45.532;5.290;2023-01-19T03:53:09;0.70;90.20
24326;DHT22;12448;45.532;5.290;2023-01-19T03:55:37;0.70;90.10
24326;DHT22;12448;45.532;5.290;2023-01-19T03:58:04;0.60;90.10
24326;DHT22;12448;45.532;5.290;2023-01-19T04:00:30;0.70;90.20
24326;DHT22;12448;45.532;5.290;2023-01-19T04:02:55;0.60;90.20
24326;DHT22;12448;45.532;5.290;2023-01-19T04:05:21;0.60;90.30
24326;DHT22;12448;45.532;5.290;2023-01-19T04:07:48;0.60;90.30
24326;DHT22;12448;45.532;5.290;2023-01-19T04:10:16;0.60;90.40
24326;DHT22;12448;45.532;5.290;2023-01-19T04:12:42;0.70;90.40
24326;DHT22;12448;45.532;5.290;2023-01-19T04:15:07;0.50;90.30
24326;DHT22;12448;45.532;5.290;2023-01-19T04:17:33;0.60;90.30
24326;DHT22;12448;45.532;5.290;2023-01-19T04:19:59;0.60;90.30
24326;DHT22;12448;45.532;5.290;2023-01-19T04:22:24;0.60;90.30
24326;DHT22;12448;45.532;5.290;2023-01-19T04:24:50;0.60;90.30
24326;DHT22;12448;45.532;5.290;2023-01-19T04:27:16;0.50;90.40
24326;DHT22;12448;45.532;5.290;2023-01-19T04:29:42;0.90;90.60
24326;DHT22;12448;45.532;5.290;2023-01-19T04:32:08;0.50;90.60
24326;DHT22;12448;45.532;5.290;2023-01-19T04:34:34;0.60;90.70
24326;DHT22;12448;45.532;5.290;2023-01-19T04:36:59;0.70;90.90
24326;DHT22;12448;45.532;5.290;2023-01-19T04:39:25;0.70;91.10
24326;DHT22;12448;45.532;5.290;2023-01-19T04:41:52;0.80;91.20
24326;DHT22;12448;45.532;5.290;2023-01-19T04:44:17;0.80;91.20
24326;DHT22;12448;45.532;5.290;2023-01-19T04:46:43;0.90;91.10
24326;DHT22;12448;45.532;5.290;2023-01-19T04:49:09;0.90;91.10
24326;DHT22;12448;45.532;5.290;2023-01-19T04:51:35;1.00;91.00
24326;DHT22;12448;45.532;5.290;2023-01-19T04:54:01;1.10;91.00
24326;DHT22;12448;45.532;5.290;2023-01-19T04:56:27;1.30;90.90
24326;DHT22;12448;45.532;5.290;2023-01-19T04:58:53;1.00;90.80
24326;DHT22;12448;45.532;5.290;2023-01-19T05:01:19;0.90;90.70
24326;DHT22;12448;45.532;5.290;2023-01-19T05:03:44;0.70;90.50
24326;DHT22;12448;45.532;5.290;2023-01-19T05:06:10;1.10;91.10
24326;DHT22;12448;45.532;5.290;2023-01-19T05:08:36;0.50;91.20
24326;DHT22;12448;45.532;5.290;2023-01-19T05:11:02;0.40;91.50
24326;DHT22;12448;45.532;5.290;2023-01-19T05:13:27;0.30;91.90
24326;DHT22;12448;45.532;5.290;2023-01-19T05:15:53;0.30;92.10
24326;DHT22;12448;45.532;5.290;2023-01-19T05:18:18;0.30;92.20
24326;DHT22;12448;45.532;5.290;2023-01-19T05:20:44;0.40;92.60
24326;DHT22;12448;45.532;5.290;2023-01-19T05:23:09;0.40;92.70
24326;DHT22;12448;45.532;5.290;2023-01-19T05:25:35;0.50;92.70
24326;DHT22;12448;45.532;5.290;2023-01-19T05:28:01;0.50;92.80
24326;DHT22;12448;45.532;5.290;2023-01-19T05:30:28;0.50;92.70
24326;DHT22;12448;45.532;5.290;2023-01-19T05:32:54;0.60;92.80
24326;DHT22;12448;45.532;5.290;2023-01-19T05:35:19;0.70;92.90
24326;DHT22;12448;45.532;5.290;2023-01-19T05:37:45;0.70;92.80
24326;DHT22;12448;45.532;5.290;2023-01-19T05:40:11;0.90;92.80
24326;DHT22;12448;45.532;5.290;2023-01-19T05:42:37;1.00;92.90
24326;DHT22;12448;45.532;5.290;2023-01-19T05:45:03;1.00;92.80
24326;DHT22;12448;45.532;5.290;2023-01-19T05:47:30;1.10;92.70
24326;DHT22;12448;45.532;5.290;2023-01-19T05:49:56;1.30;92.70
24326;DHT22;12448;45.532;5.290;2023-01-19T05:52:21;1.30;92.60
24326;DHT22;12448;45.532;5.290;2023-01-19T05:54:49;1.30;92.60
24326;DHT22;12448;45.532;5.290;2023-01-19T05:57:16;2.00;92.70
24326;DHT22;12448;45.532;5.290;2023-01-19T05:59:41;1.40;92.40
24326;DHT22;12448;45.532;5.290;2023-01-19T06:02:07;1.30;92.20
24326;DHT22;12448;45.532;5.290;2023-01-19T06:04:33;1.30;92.20
24326;DHT22;12448;45.532;5.290;2023-01-19T06:06:59;1.30;92.20
24326;DHT22;12448;45.532;5.290;2023-01-19T06:09:24;1.30;92.30
24326;DHT22;12448;45.532;5.290;2023-01-19T06:11:50;1.30;92.40
24326;DHT22;12448;45.532;5.290;2023-01-19T06:14:18;1.30;92.50
24326;DHT22;12448;45.532;5.290;2023-01-19T06:16:44;1.90;92.70
24326;DHT22;12448;45.532;5.290;2023-01-19T06:19:09;1.40;92.50
24326;DHT22;12448;45.532;5.290;2023-01-19T06:21:35;1.40;92.50
24326;DHT22;12448;45.532;5.290;2023-01-19T06:24:01;1.40;92.40
24326;DHT22;12448;45.532;5.290;2023-01-19T06:26:28;1.50;92.40
24326;DHT22;12448;45.532;5.290;2023-01-19T06:28:54;1.40;92.30
24326;DHT22;12448;45.532;5.290;2023-01-19T06:31:20;1.40;92.30
24326;DHT22;12448;45.532;5.290;2023-01-19T06:33:45;1.40;92.20
24326;DHT22;12448;45.532;5.290;2023-01-19T06:36:11;1.50;92.20
24326;DHT22;12448;45.532;5.290;2023-01-19T06:38:37;1.40;92.10
24326;DHT22;12448;45.532;5.290;2023-01-19T06:41:03;1.40;92.10
24326;DHT22;12448;45.532;5.290;2023-01-19T06:43:29;1.40;92.10
24326;DHT22;12448;45.532;5.290;2023-01-19T06:45:56;1.40;92.40
24326;DHT22;12448;45.532;5.290;2023-01-19T06:48:22;1.40;92.30
24326;DHT22;12448;45.532;5.290;2023-01-19T06:50:48;1.50;92.60
24326;DHT22;12448;45.532;5.290;2023-01-19T06:53:15;1.50;92.90
24326;DHT22;12448;45.532;5.290;2023-01-19T06:55:42;1.50;92.50
24326;DHT22;12448;45.532;5.290;2023-01-19T06:58:08;1.40;92.30
24326;DHT22;12448;45.532;5.290;2023-01-19T07:00:34;1.30;92.10
24326;DHT22;12448;45.532;5.290;2023-01-19T07:03:00;1.30;92.10
24326;DHT22;12448;45.532;5.290;2023-01-19T07:05:26;1.30;92.10
24326;DHT22;12448;45.532;5.290;2023-01-19T07:07:53;1.30;92.00
24326;DHT22;12448;45.532;5.290;2023-01-19T07:10:19;1.20;92.10
24326;DHT22;12448;45.532;5.290;2023-01-19T07:12:45;1.10;91.80
24326;DHT22;12448;45.532;5.290;2023-01-19T07:15:12;1.10;92.00
24326;DHT22;12448;45.532;5.290;2023-01-19T07:17:39;1.10;91.90
24326;DHT22;12448;45.532;5.290;2023-01-19T07:20:08;1.10;91.90
24326;DHT22;12448;45.532;5.290;2023-01-19T07:22:35;1.10;91.90
24326;DHT22;12448;45.532;5.290;2023-01-19T07:25:01;1.10;91.60
24326;DHT22;12448;45.532;5.290;2023-01-19T07:27:26;1.00;91.50
24326;DHT22;12448;45.532;5.290;2023-01-19T07:29:53;1.00;91.50
24326;DHT22;12448;45.532;5.290;2023-01-19T07:32:18;1.50;91.80
24326;DHT22;12448;45.532;5.290;2023-01-19T07:34:44;1.10;91.70
24326;DHT22;12448;45.532;5.290;2023-01-19T07:37:10;1.50;91.90
24326;DHT22;12448;45.532;5.290;2023-01-19T07:39:35;1.00;91.80
24326;DHT22;12448;45.532;5.290;2023-01-19T07:42:01;1.10;91.80
24326;DHT22;12448;45.532;5.290;2023-01-19T07:44:27;1.10;91.90
24326;DHT22;12448;45.532;5.290;2023-01-19T07:46:52;1.20;92.00
24326;DHT22;12448;45.532;5.290;2023-01-19T07:49:18;1.20;92.10
24326;DHT22;12448;45.532;5.290;2023-01-19T07:51:45;1.20;91.90
24326;DHT22;12448;45.532;5.290;2023-01-19T07:54:10;1.20;91.90
24326;DHT22;12448;45.532;5.290;2023-01-19T07:56:36;1.20;91.80
24326;DHT22;12448;45.532;5.290;2023-01-19T07:59:02;1.10;92.00
24326;DHT22;12448;45.532;5.290;2023-01-19T08:01:28;1.10;91.90
24326;DHT22;12448;45.532;5.290;2023-01-19T08:03:54;1.30;92.10
24326;DHT22;12448;45.532;5.290;2023-01-19T08:06:28;1.10;92.50
24326;DHT22;12448;45.532;5.290;2023-01-19T08:08:56;1.20;92.00
24326;DHT22;12448;45.532;5.290;2023-01-19T08:11:21;1.10;91.80
24326;DHT22;12448;45.532;5.290;2023-01-19T08:13:47;1.10;92.00
24326;DHT22;12448;45.532;5.290;2023-01-19T08:16:13;1.10;92.10
24326;DHT22;12448;45.532;5.290;2023-01-19T08:18:38;1.10;92.20
24326;DHT22;12448;45.532;5.290;2023-01-19T08:21:04;1.00;92.20
24326;DHT22;12448;45.532;5.290;2023-01-19T08:23:30;1.00;92.20
24326;DHT22;12448;45.532;5.290;2023-01-19T08:25:55;1.00;92.40
24326;DHT22;12448;45.532;5.290;2023-01-19T08:28:22;0.80;92.60
24326;DHT22;12448;45.532;5.290;2023-01-19T08:30:48;0.80;92.90
24326;DHT22;12448;45.532;5.290;2023-01-19T08:33:23;0.80;93.20
24326;DHT22;12448;45.532;5.290;2023-01-19T08:35:51;0.80;93.40
24326;DHT22;12448;45.532;5.290;2023-01-19T08:38:17;0.80;93.60
24326;DHT22;12448;45.532;5.290;2023-01-19T08:40:43;0.80;93.50
24326;DHT22;12448;45.532;5.290;2023-01-19T08:43:14;0.80;93.70
24326;DHT22;12448;45.532;5.290;2023-01-19T08:45:43;0.80;93.50
24326;DHT22;12448;45.532;5.290;2023-01-19T08:48:18;0.90;93.70
24326;DHT22;12448;45.532;5.290;2023-01-19T08:50:45;1.20;93.80
24326;DHT22;12448;45.532;5.290;2023-01-19T08:53:12;1.20;93.80
24326;DHT22;12448;45.532;5.290;2023-01-19T08:55:38;1.10;93.70
24326;DHT22;12448;45.532;5.290;2023-01-19T08:58:04;1.20;93.70
24326;DHT22;12448;45.532;5.290;2023-01-19T09:00:30;1.30;93.70
24326;DHT22;12448;45.532;5.290;2023-01-19T09:02:57;1.40;93.70
24326;DHT22;12448;45.532;5.290;2023-01-19T09:05:23;1.50;93.70
24326;DHT22;12448;45.532;5.290;2023-01-19T09:07:49;1.60;93.60
24326;DHT22;12448;45.532;5.290;2023-01-19T09:10:16;1.70;93.30
24326;DHT22;12448;45.532;5.290;2023-01-19T09:12:42;1.60;93.20
24326;DHT22;12448;45.532;5.290;2023-01-19T09:15:10;1.50;93.00
24326;DHT22;12448;45.532;5.290;2023-01-19T09:17:36;1.50;93.10
24326;DHT22;12448;45.532;5.290;2023-01-19T09:20:02;1.40;93.10
24326;DHT22;12448;45.532;5.290;2023-01-19T09:22:30;1.30;93.20
24326;DHT22;12448;45.532;5.290;2023-01-19T09:24:57;1.30;93.20
24326;DHT22;12448;45.532;5.290;2023-01-19T09:27:23;1.30;93.70
24326;DHT22;12448;45.532;5.290;2023-01-19T09:29:48;1.20;93.30
24326;DHT22;12448;45.532;5.290;2023-01-19T09:32:17;1.20;93.30
24326;DHT22;12448;45.532;5.290;2023-01-19T09:34:44;1.20;93.40
24326;DHT22;12448;45.532;5.290;2023-01-19T09:37:09;1.10;93.50
24326;DHT22;12448;45.532;5.290;2023-01-19T09:39:35;1.40;93.60
24326;DHT22;12448;45.532;5.290;2023-01-19T09:44:46;1.20;93.70
24326;DHT22;12448;45.532;5.290;2023-01-19T09:47:14;1.20;93.80
24326;DHT22;12448;45.532;5.290;2023-01-19T09:49:44;1.30;93.70
24326;DHT22;12448;45.532;5.290;2023-01-19T09:52:14;1.20;93.80
24326;DHT22;12448;45.532;5.290;2023-01-19T09:54:51;1.20;93.80
24326;DHT22;12448;45.532;5.290;2023-01-19T09:57:19;1.30;93.80
24326;DHT22;12448;45.532;5.290;2023-01-19T09:59:46;1.30;93.80
24326;DHT22;12448;45.532;5.290;2023-01-19T10:05:13;1.50;94.00
24326;DHT22;12448;45.532;5.290;2023-01-19T10:10:21;1.80;93.80
24326;DHT22;12448;45.532;5.290;2023-01-19T10:18:25;1.80;93.50
24326;DHT22;12448;45.532;5.290;2023-01-19T10:21:04;1.80;93.40
24326;DHT22;12448;45.532;5.290;2023-01-19T10:23:49;1.70;93.40
24326;DHT22;12448;45.532;5.290;2023-01-19T10:26:23;1.60;93.60
24326;DHT22;12448;45.532;5.290;2023-01-19T10:28:53;1.50;93.60
24326;DHT22;12448;45.532;5.290;2023-01-19T10:31:22;1.50;93.80
24326;DHT22;12448;45.532;5.290;2023-01-19T10:33:49;1.40;94.00
24326;DHT22;12448;45.532;5.290;2023-01-19T10:36:24;1.50;94.20
24326;DHT22;12448;45.532;5.290;2023-01-19T10:38:52;1.50;94.20
24326;DHT22;12448;45.532;5.290;2023-01-19T10:41:24;1.50;94.30
24326;DHT22;12448;45.532;5.290;2023-01-19T10:44:01;1.50;94.50
24326;DHT22;12448;45.532;5.290;2023-01-19T10:46:32;1.50;94.80
24326;DHT22;12448;45.532;5.290;2023-01-19T10:48:59;1.50;94.80
24326;DHT22;12448;45.532;5.290;2023-01-19T10:51:25;1.40;94.90
24326;DHT22;12448;45.532;5.290;2023-01-19T10:54:01;1.40;95.10
24326;DHT22;12448;45.532;5.290;2023-01-19T10:56:30;1.40;95.20
24326;DHT22;12448;45.532;5.290;2023-01-19T10:58:59;1.90;95.30
24326;DHT22;12448;45.532;5.290;2023-01-19T11:01:26;2.10;95.40
24326;DHT22;12448;45.532;5.290;2023-01-19T11:03:53;1.60;95.20
24326;DHT22;12448;45.532;5.290;2023-01-19T11:06:21;1.70;95.10
24326;DHT22;12448;45.532;5.290;2023-01-19T11:08:48;1.80;95.00
24326;DHT22;12448;45.532;5.290;2023-01-19T11:11:18;1.90;94.90
24326;DHT22;12448;45.532;5.290;2023-01-19T11:13:46;2.00;95.10
24326;DHT22;12448;45.532;5.290;2023-01-19T11:16:26;2.00;94.60
24326;DHT22;12448;45.532;5.290;2023-01-19T11:18:55;2.00;94.50
24326;DHT22;12448;45.532;5.290;2023-01-19T11:21:26;1.90;94.60
24326;DHT22;12448;45.532;5.290;2023-01-19T11:23:55;1.90;94.70
24326;DHT22;12448;45.532;5.290;2023-01-19T11:26:44;2.00;94.70
24326;DHT22;12448;45.532;5.290;2023-01-19T11:29:22;2.00;94.50
24326;DHT22;12448;45.532;5.290;2023-01-19T11:31:50;2.40;94.50
24326;DHT22;12448;45.532;5.290;2023-01-19T11:34:30;2.30;94.50
24326;DHT22;12448;45.532;5.290;2023-01-19T11:37:03;2.00;94.30
24326;DHT22;12448;45.532;5.290;2023-01-19T11:39:31;2.00;94.10
24326;DHT22;12448;45.532;5.290;2023-01-19T11:42:03;2.10;93.60
24326;DHT22;12448;45.532;5.290;2023-01-19T11:47:01;2.00;92.70
24326;DHT22;12448;45.532;5.290;2023-01-19T11:49:46;1.90;92.90
24326;DHT22;12448;45.532;5.290;2023-01-19T11:52:26;1.90;93.10
24326;DHT22;12448;45.532;5.290;2023-01-19T11:57:48;2.00;93.10
24326;DHT22;12448;45.532;5.290;2023-01-19T12:03:14;1.90;93.10
24326;DHT22;12448;45.532;5.290;2023-01-19T12:05:48;1.90;93.10
24326;DHT22;12448;45.532;5.290;2023-01-19T12:08:19;1.90;93.20
24326;DHT22;12448;45.532;5.290;2023-01-19T12:10:47;2.20;93.20
24326;DHT22;12448;45.532;5.290;2023-01-19T12:13:18;1.80;93.00
24326;DHT22;12448;45.532;5.290;2023-01-19T12:15:47;2.00;93.10
24326;DHT22;12448;45.532;5.290;2023-01-19T12:18:22;2.10;93.20
24326;DHT22;12448;45.532;5.290;2023-01-19T12:20:51;2.30;93.30
24326;DHT22;12448;45.532;5.290;2023-01-19T12:28:54;2.70;93.10
24326;DHT22;12448;45.532;5.290;2023-01-19T12:31:23;2.80;93.00
24326;DHT22;12448;45.532;5.290;2023-01-19T12:33:50;2.80;92.90
24326;DHT22;12448;45.532;5.290;2023-01-19T12:38:55;2.90;92.90
24326;DHT22;12448;45.532;5.290;2023-01-19T12:41:41;3.00;92.80
24326;DHT22;12448;45.532;5.290;2023-01-19T12:46:40;3.10;92.60
24326;DHT22;12448;45.532;5.290;2023-01-19T12:51:40;3.10;92.40
24326;DHT22;12448;45.532;5.290;2023-01-19T12:54:19;3.10;92.40
24326;DHT22;12448;45.532;5.290;2023-01-19T12:56:47;3.20;92.40
24326;DHT22;12448;45.532;5.290;2023-01-19T12:59:27;3.30;92.30
24326;DHT22;12448;45.532;5.290;2023-01-19T13:13:20;3.40;92.20
24326;DHT22;12448;45.532;5.290;2023-01-19T13:15:46;3.40;92.10
24326;DHT22;12448;45.532;5.290;2023-01-19T13:18:29;3.40;92.00
24326;DHT22;12448;45.532;5.290;2023-01-19T13:20:59;3.80;92.10
24326;DHT22;12448;45.532;5.290;2023-01-19T13:23:52;3.50;92.00
24326;DHT22;12448;45.532;5.290;2023-01-19T13:26:22;3.60;92.00
24326;DHT22;12448;45.532;5.290;2023-01-19T13:28:54;3.70;92.00
24326;DHT22;12448;45.532;5.290;2023-01-19T13:31:22;3.70;91.90
24326;DHT22;12448;45.532;5.290;2023-01-19T13:33:57;4.10;91.90
24326;DHT22;12448;45.532;5.290;2023-01-19T13:36:36;3.80;92.10
24326;DHT22;12448;45.532;5.290;2023-01-19T13:39:12;3.80;91.60
24326;DHT22;12448;45.532;5.290;2023-01-19T13:41:40;3.80;91.60
24326;DHT22;12448;45.532;5.290;2023-01-19T13:44:17;3.90;91.60
24326;DHT22;12448;45.532;5.290;2023-01-19T13:46:44;4.10;91.60
24326;DHT22;12448;45.532;5.290;2023-01-19T13:49:20;3.80;91.40
24326;DHT22;12448;45.532;5.290;2023-01-19T13:55:01;3.70;91.20
24326;DHT22;12448;45.532;5.290;2023-01-19T13:57:39;3.70;91.10
24326;DHT22;12448;45.532;5.290;2023-01-19T14:03:01;3.70;91.10
24326;DHT22;12448;45.532;5.290;2023-01-19T14:05:34;3.70;91.10
24326;DHT22;12448;45.532;5.290;2023-01-19T14:08:04;3.60;91.10
24326;DHT22;12448;45.532;5.290;2023-01-19T14:10:31;3.70;91.10
24326;DHT22;12448;45.532;5.290;2023-01-19T14:13:02;3.60;91.30
24326;DHT22;12448;45.532;5.290;2023-01-19T14:15:31;3.90;91.10
24326;DHT22;12448;45.532;5.290;2023-01-19T14:21:03;3.70;91.00
24326;DHT22;12448;45.532;5.290;2023-01-19T14:23:47;3.70;90.90
24326;DHT22;12448;45.532;5.290;2023-01-19T14:26:47;3.70;90.80
24326;DHT22;12448;45.532;5.290;2023-01-19T14:29:33;3.70;90.80
24326;DHT22;12448;45.532;5.290;2023-01-19T14:32:10;4.00;90.90
24326;DHT22;12448;45.532;5.290;2023-01-19T14:34:40;3.60;90.30
24326;DHT22;12448;45.532;5.290;2023-01-19T14:37:26;3.60;90.10
24326;DHT22;12448;45.532;5.290;2023-01-19T14:40:14;3.50;89.60
24326;DHT22;12448;45.532;5.290;2023-01-19T14:42:59;3.40;89.30
24326;DHT22;12448;45.532;5.290;2023-01-19T14:45:33;3.20;88.80
24326;DHT22;12448;45.532;5.290;2023-01-19T14:48:11;3.10;89.40
24326;DHT22;12448;45.532;5.290;2023-01-19T14:50:40;3.00;89.90
24326;DHT22;12448;45.532;5.290;2023-01-19T14:53:36;2.90;90.00
24326;DHT22;12448;45.532;5.290;2023-01-19T14:56:03;2.80;90.10
24326;DHT22;12448;45.532;5.290;2023-01-19T14:58:32;2.70;90.40
24326;DHT22;12448;45.532;5.290;2023-01-19T15:00:58;2.70;90.60
24326;DHT22;12448;45.532;5.290;2023-01-19T15:03:26;2.70;90.60
24326;DHT22;12448;45.532;5.290;2023-01-19T15:05:54;2.60;90.70
24326;DHT22;12448;45.532;5.290;2023-01-19T15:08:31;2.60;90.70
24326;DHT22;12448;45.532;5.290;2023-01-19T15:11:02;2.60;90.70
24326;DHT22;12448;45.532;5.290;2023-01-19T15:13:31;2.60;90.70
24326;DHT22;12448;45.532;5.290;2023-01-19T15:15:56;2.70;90.80
24326;DHT22;12448;45.532;5.290;2023-01-19T15:18:24;2.80;90.90
24326;DHT22;12448;45.532;5.290;2023-01-19T15:20:52;2.80;90.90
24326;DHT22;12448;45.532;5.290;2023-01-19T15:23:19;2.90;90.80
24326;DHT22;12448;45.532;5.290;2023-01-19T15:25:45;2.90;90.70
24326;DHT22;12448;45.532;5.290;2023-01-19T15:28:12;3.10;90.80
24326;DHT22;12448;45.532;5.290;2023-01-19T15:30:38;3.00;90.80
24326;DHT22;12448;45.532;5.290;2023-01-19T15:33:04;3.00;91.20
24326;DHT22;12448;45.532;5.290;2023-01-19T15:35:30;3.10;90.90
24326;DHT22;12448;45.532;5.290;2023-01-19T15:37:56;3.00;90.90
24326;DHT22;12448;45.532;5.290;2023-01-19T15:40:21;3.10;90.90
24326;DHT22;12448;45.532;5.290;2023-01-19T15:42:48;3.10;90.90
24326;DHT22;12448;45.532;5.290;2023-01-19T15:48:06;3.10;91.00
24326;DHT22;12448;45.532;5.290;2023-01-19T15:50:35;3.40;91.20
24326;DHT22;12448;45.532;5.290;2023-01-19T15:53:00;3.00;91.10
24326;DHT22;12448;45.532;5.290;2023-01-19T15:55:26;3.10;91.10
24326;DHT22;12448;45.532;5.290;2023-01-19T15:57:52;3.00;91.00
24326;DHT22;12448;45.532;5.290;2023-01-19T16:00:18;3.00;91.00
24326;DHT22;12448;45.532;5.290;2023-01-19T16:02:44;3.00;91.00
24326;DHT22;12448;45.532;5.290;2023-01-19T16:05:10;3.30;91.20
24326;DHT22;12448;45.532;5.290;2023-01-19T16:07:35;3.00;91.10
24326;DHT22;12448;45.532;5.290;2023-01-19T16:10:01;3.00;91.10
24326;DHT22;12448;45.532;5.290;2023-01-19T16:12:27;2.90;91.00
24326;DHT22;12448;45.532;5.290;2023-01-19T16:14:53;2.90;91.00
24326;DHT22;12448;45.532;5.290;2023-01-19T16:17:19;2.70;90.70
24326;DHT22;12448;45.532;5.290;2023-01-19T16:19:45;2.90;90.80
24326;DHT22;12448;45.532;5.290;2023-01-19T16:22:12;2.80;90.70
24326;DHT22;12448;45.532;5.290;2023-01-19T16:24:37;2.80;90.70
24326;DHT22;12448;45.532;5.290;2023-01-19T16:27:03;2.80;90.80
24326;DHT22;12448;45.532;5.290;2023-01-19T16:29:30;2.80;90.80
24326;DHT22;12448;45.532;5.290;2023-01-19T16:31:55;2.80;90.80
24326;DHT22;12448;45.532;5.290;2023-01-19T16:34:21;2.70;90.60
24326;DHT22;12448;45.532;5.290;2023-01-19T16:36:49;2.60;90.90
24326;DHT22;12448;45.532;5.290;2023-01-19T16:39:15;2.60;90.60
24326;DHT22;12448;45.532;5.290;2023-01-19T16:41:42;2.60;90.70
24326;DHT22;12448;45.532;5.290;2023-01-19T16:44:13;2.60;90.70
24326;DHT22;12448;45.532;5.290;2023-01-19T16:46:40;2.60;90.90
24326;DHT22;12448;45.532;5.290;2023-01-19T16:49:18;2.60;91.00
24326;DHT22;12448;45.532;5.290;2023-01-19T16:51:44;2.50;91.10
24326;DHT22;12448;45.532;5.290;2023-01-19T16:54:18;2.60;91.30
24326;DHT22;12448;45.532;5.290;2023-01-19T16:56:44;2.50;91.30
24326;DHT22;12448;45.532;5.290;2023-01-19T16:59:11;2.50;91.30
24326;DHT22;12448;45.532;5.290;2023-01-19T17:01:37;2.50;91.40
24326;DHT22;12448;45.532;5.290;2023-01-19T17:04:04;2.50;91.40
24326;DHT22;12448;45.532;5.290;2023-01-19T17:06:30;2.50;91.50
24326;DHT22;12448;45.532;5.290;2023-01-19T17:08:56;2.50;91.40
24326;DHT22;12448;45.532;5.290;2023-01-19T17:11:27;2.50;91.40
24326;DHT22;12448;45.532;5.290;2023-01-19T17:14:03;2.50;91.40